Time;durP1;ratioP1;P1;durP2;ratioP2;P2;SDS_P1;SDS_P2;PMS_P1;PMS_P2;Temp;Humidity;BMP_temperature;BMP_pressure;BME280_temperature;BME280_humidity;BME280_pressure;Samples;Min_cycle;Max_cycle;Signal;HPM_P1;HPM_P2
2021/01/02 00:00:06;;;;;;;40.95;19.35;;;9.60;59.70;;;;;;5071251;28;20455;-66
2021/01/02 00:02:44;;;;;;;38.95;18.17;;;9.50;59.80;;;;;;5071009;28;20028;-67
2021/01/02 00:05:11;;;;;;;41.65;20.60;;;9.50;60.00;;;;;;5071267;28;20037;-66
2021/01/02 00:07:57;;;;;;;35.20;17.90;;;9.50;59.90;;;;;;5069701;28;20031;-67
2021/01/02 00:10:31;;;;;;;39.17;18.90;;;9.50;60.20;;;;;;5071513;28;20048;-67
2021/01/02 00:13:13;;;;;;;41.85;19.80;;;9.40;60.30;;;;;;5071463;28;20535;-67
2021/01/02 00:15:54;;;;;;;41.97;20.23;;;9.40;60.40;;;;;;5071017;28;20443;-67
2021/01/02 00:18:49;;;;;;;40.08;19.65;;;9.40;60.20;;;;;;5070973;28;20047;-66
2021/01/02 00:21:25;;;;;;;39.30;19.95;;;9.30;60.20;;;;;;5066167;28;20064;-67
2021/01/02 00:23:52;;;;;;;42.65;20.10;;;;;;;;;;5071028;28;20498;-66
2021/01/02 00:26:44;;;;;;;35.35;17.35;;;9.40;60.10;;;;;;5070941;28;20056;-66
2021/01/02 00:29:15;;;;;;;39.70;20.10;;;9.40;59.90;;;;;;5070829;28;20044;-65
2021/01/02 00:32:06;;;;;;;42.72;20.55;;;9.50;59.80;;;;;;5071113;28;20024;-66
2021/01/02 00:34:50;;;;;;;39.95;19.05;;;9.50;59.60;;;;;;5070814;28;20032;-67
2021/01/02 00:37:30;;;;;;;37.28;19.17;;;9.50;59.80;;;;;;5070767;28;20032;-67
2021/01/02 00:39:56;;;;;;;40.60;19.27;;;;;;;;;;5076490;28;20060;-68
2021/01/02 00:42:25;;;;;;;40.15;18.45;;;9.20;60.50;;;;;;5076662;28;20029;-66
2021/01/02 00:44:52;;;;;;;43.38;19.60;;;9.20;60.30;;;;;;5075567;28;20044;-67
2021/01/02 00:47:19;;;;;;;40.70;20.80;;;9.20;60.20;;;;;;5074791;28;20031;-66
2021/01/02 00:49:49;;;;;;;37.90;19.42;;;9.20;60.10;;;;;;5073453;28;20032;-66
2021/01/02 00:52:42;;;;;;;35.65;19.15;;;9.30;60.00;;;;;;5074466;28;20028;-67
2021/01/02 00:55:46;;;;;;;41.05;18.20;;;9.20;60.00;;;;;;5074549;28;20025;-66
2021/01/02 00:58:28;;;;;;;37.47;18.90;;;9.20;60.10;;;;;;5073333;28;20478;-66
2021/01/02 01:01:02;;;;;;;37.08;18.85;;;9.30;60.10;;;;;;5046969;28;20028;-67
2021/01/02 01:04:07;;;;;;;37.13;18.20;;;9.20;59.90;;;;;;5056572;28;20407;-66
2021/01/02 01:06:38;;;;;;;41.33;20.00;;;9.30;59.80;;;;;;5074413;28;20033;-66
2021/01/02 01:09:05;;;;;;;38.30;20.08;;;9.30;59.50;;;;;;5074087;28;20032;-66
2021/01/02 01:11:36;;;;;;;42.17;19.48;;;9.30;59.50;;;;;;5074277;28;20020;-66
2021/01/02 01:14:04;;;;;;;40.50;19.80;;;9.30;59.50;;;;;;5074313;28;20524;-67
2021/01/02 01:16:39;;;;;;;36.78;19.88;;;9.30;59.40;;;;;;5074384;28;20383;-66
2021/01/02 01:19:05;;;;;;;40.92;19.83;;;;;;;;;;5072898;28;20033;-67
2021/01/02 01:21:35;;;;;;;36.65;18.85;;;9.30;59.30;;;;;;5074122;28;20467;-66
2021/01/02 01:24:12;;;;;;;38.33;17.30;;;9.20;59.50;;;;;;5074212;28;20502;-67
2021/01/02 01:27:04;;;;;;;40.03;19.33;;;9.10;59.90;;;;;;5074105;28;20040;-67
2021/01/02 01:29:43;;;;;;;35.90;18.67;;;9.10;59.60;;;;;;5073846;28;20067;-66
2021/01/02 01:32:10;;;;;;;36.85;19.25;;;9.20;59.70;;;;;;5072751;28;20437;-66
2021/01/02 01:34:36;;;;;;;39.88;20.17;;;9.30;59.50;;;;;;5073533;28;20391;-68
2021/01/02 01:37:05;;;;;;;44.45;19.42;;;9.30;59.30;;;;;;5073771;28;20083;-67
2021/01/02 01:39:33;;;;;;;40.80;19.35;;;9.30;59.20;;;;;;5073807;28;20028;-66
2021/01/02 01:42:05;;;;;;;41.10;19.20;;;9.30;59.00;;;;;;5073790;28;20037;-66
2021/01/02 01:44:57;;;;;;;38.40;19.13;;;9.30;58.90;;;;;;5072259;28;20036;-67
2021/01/02 01:47:55;;;;;;;42.10;19.73;;;9.30;59.10;;;;;;5073550;28;20070;-67
2021/01/02 01:50:25;;;;;;;43.28;19.23;;;9.40;59.00;;;;;;5072747;28;20386;-67
2021/01/02 01:52:51;;;;;;;37.90;18.33;;;;;;;;;;5073424;28;20025;-67
2021/01/02 01:55:41;;;;;;;37.03;20.35;;;9.30;58.90;;;;;;5073449;28;20032;-67
2021/01/02 01:58:16;;;;;;;38.45;18.95;;;9.50;58.80;;;;;;5073319;28;20035;-67
2021/01/02 02:00:49;;;;;;;39.30;19.15;;;9.40;58.60;;;;;;5073363;28;20494;-67
2021/01/02 02:03:23;;;;;;;40.83;19.77;;;9.40;58.60;;;;;;5073197;28;20390;-66
2021/01/02 02:06:01;;;;;;;39.45;18.65;;;9.30;58.50;;;;;;5073252;28;20627;-66
2021/01/02 02:08:43;;;;;;;38.17;18.20;;;9.20;58.90;;;;;;5073273;28;20036;-66
2021/01/02 02:11:36;;;;;;;39.30;19.58;;;9.10;59.20;;;;;;5073281;28;20111;-66
2021/01/02 02:14:16;;;;;;;43.50;19.33;;;9.00;59.40;;;;;;5072850;28;20043;-66
2021/01/02 02:16:49;;;;;;;40.50;19.25;;;9.00;59.50;;;;;;5073130;28;20364;-66
2021/01/02 02:19:40;;;;;;;41.85;18.73;;;9.00;59.40;;;;;;5072930;28;20024;-67
2021/01/02 02:22:20;;;;;;;38.20;18.80;;;9.00;59.60;;;;;;5073021;28;20141;-67
2021/01/02 02:24:50;;;;;;;37.38;18.67;;;9.00;59.50;;;;;;5072707;28;20059;-66
2021/01/02 02:27:26;;;;;;;43.85;20.75;;;8.80;59.90;;;;;;5072923;28;20526;-67
2021/01/02 02:30:30;;;;;;;41.35;20.38;;;8.80;60.10;;;;;;5071779;28;20036;-67
2021/01/02 02:32:57;;;;;;;36.58;19.85;;;;;;;;;;5072432;28;20047;-66
2021/01/02 02:35:23;;;;;;;;;;;9.00;59.80;;;;;;5071917;28;20050;-66
2021/01/02 02:37:51;;;;;;;41.22;19.75;;;9.00;59.10;;;;;;5072342;28;20287;-67
2021/01/02 02:40:19;;;;;;;38.70;19.33;;;9.10;59.00;;;;;;5072749;28;20052;-66
2021/01/02 02:42:59;;;;;;;38.15;19.38;;;9.00;58.80;;;;;;5069209;28;20441;-66
2021/01/02 02:45:27;;;;;;;34.22;18.40;;;;;;;;;;5046743;28;20045;-67
2021/01/02 02:48:00;;;;;;;39.60;19.42;;;8.90;59.10;;;;;;5039535;28;20091;-66
2021/01/02 02:50:28;;;;;;;36.20;18.17;;;8.80;59.10;;;;;;5053274;28;20032;-66
2021/01/02 02:53:15;;;;;;;37.33;18.75;;;8.90;59.70;;;;;;5053555;28;20033;-67
2021/01/02 02:55:42;;;;;;;40.58;19.50;;;;;;;;;;5052228;28;20434;-66
2021/01/02 02:58:09;;;;;;;35.70;19.10;;;;;;;;;;5052886;28;20037;-66
2021/01/02 03:00:36;;;;;;;39.90;19.05;;;8.90;59.00;;;;;;5054016;28;20131;-67
2021/01/02 03:03:04;;;;;;;39.88;19.65;;;8.90;59.00;;;;;;5051257;28;20029;-66
2021/01/02 03:05:30;;;;;;;35.17;18.90;;;;;;;;;;5050673;28;20394;-67
2021/01/02 03:07:57;;;;;;;38.55;19.50;;;;;;;;;;5050836;28;20185;-66
2021/01/02 03:10:23;;;;;;;43.15;19.80;;;;;;;;;;5052024;28;20037;-67
2021/01/02 03:12:51;;;;;;;39.03;19.27;;;9.00;58.50;;;;;;5050088;28;20041;-66
2021/01/02 03:15:26;;;;;;;42.35;20.70;;;9.00;58.70;;;;;;5052254;28;20037;-67
2021/01/02 03:17:53;;;;;;;37.05;19.55;;;;;;;;;;5067104;28;20133;-68
2021/01/02 03:20:19;;;;;;;43.80;20.00;;;;;;;;;;5050587;28;20395;-67
2021/01/02 03:22:47;;;;;;;39.97;19.00;;;8.70;59.30;;;;;;5051645;28;20032;-66
2021/01/02 03:25:14;;;;;;;39.65;19.23;;;8.70;59.20;;;;;;5051660;28;20052;-67
2021/01/02 03:27:41;;;;;;;43.22;19.25;;;;;;;;;;5051436;28;20076;-67
2021/01/02 03:30:16;;;;;;;45.33;20.83;;;8.80;59.00;;;;;;5052038;28;20028;-67
2021/01/02 03:32:43;;;;;;;35.53;19.77;;;;;;;;;;5051553;28;20402;-66
2021/01/02 03:35:12;;;;;;;35.63;18.75;;;8.60;60.00;;;;;;5051513;28;20064;-67
2021/01/02 03:37:40;;;;;;;39.10;19.73;;;8.60;59.90;;;;;;5050277;28;20037;-67
2021/01/02 03:40:10;;;;;;;42.50;19.67;;;8.40;60.20;;;;;;5051330;28;20117;-66
2021/01/02 03:42:40;;;;;;;37.35;18.95;;;8.40;60.20;;;;;;5051930;28;20041;-66
2021/01/02 03:45:09;;;;;;;34.95;18.60;;;8.40;60.40;;;;;;5051213;28;20036;-67
2021/01/02 03:47:36;;;;;;;40.30;19.67;;;;;;;;;;5051645;28;20467;-67
2021/01/02 03:50:03;;;;;;;41.38;21.58;;;8.60;60.10;;;;;;5037355;28;20036;-66
2021/01/02 03:52:31;;;;;;;39.05;20.50;;;;;;;;;;5051252;28;20033;-64
2021/01/02 03:54:57;;;;;;;46.22;19.23;;;;;;;;;;5051077;28;20032;-67
2021/01/02 03:57:24;;;;;;;42.85;20.90;;;;;;;;;;5051534;28;20067;-66
2021/01/02 03:59:50;;;;;;;42.95;19.38;;;;;;;;;;5051114;28;20383;-66
2021/01/02 04:02:17;;;;;;;42.95;21.05;;;;;;;;;;5049947;28;20767;-65
2021/01/02 04:04:44;;;;;;;42.72;19.10;;;;;;;;;;5051188;28;20131;-66
2021/01/02 04:07:10;;;;;;;38.42;20.25;;;;;;;;;;5050833;28;20446;-66
2021/01/02 04:09:36;;;;;;;50.85;19.67;;;;;;;;;;5051198;28;20032;-65
2021/01/02 04:12:02;;;;;;;49.20;21.25;;;;;;;;;;5049727;28;20041;-66
2021/01/02 04:14:30;;;;;;;38.55;20.10;;;;;;;;;;5050647;28;20116;-66
2021/01/02 04:16:56;;;;;;;43.97;19.73;;;;;;;;;;5051074;28;20029;-65
2021/01/02 04:19:22;;;;;;;42.95;20.95;;;;;;;;;;5050820;28;20025;-65
2021/01/02 04:21:48;;;;;;;50.22;21.15;;;;;;;;;;5051071;28;20561;-66
2021/01/02 04:24:15;;;;;;;50.97;23.92;;;;;;;;;;5050575;28;20115;-66
2021/01/02 04:26:41;;;;;;;45.28;20.55;;;;;;;;;;5050922;28;20059;-66
2021/01/02 04:29:08;;;;;;;43.83;21.42;;;;;;;;;;5050994;28;20037;-65
2021/01/02 04:31:36;;;;;;;44.80;20.75;;;8.20;60.60;;;;;;5051235;28;20502;-66
2021/01/02 04:34:03;;;;;;;43.15;20.60;;;8.40;60.20;;;;;;5050691;28;20032;-66
2021/01/02 04:36:30;;;;;;;44.83;22.13;;;;;;;;;;5050939;28;20075;-66
2021/01/02 04:38:56;;;;;;;46.33;22.15;;;;;;;;;;5050750;28;20033;-66
2021/01/02 04:41:22;;;;;;;50.78;23.38;;;;;;;;;;5050656;28;20033;-65
2021/01/02 04:43:49;;;;;;;43.70;20.25;;;;;;;;;;5050926;28;20514;-67
2021/01/02 04:46:15;;;;;;;44.97;22.40;;;;;;;;;;5050704;28;20044;-67
2021/01/02 04:48:44;;;;;;;50.42;20.95;;;8.50;59.90;;;;;;5050843;28;20025;-66
2021/01/02 04:51:11;;;;;;;42.22;20.98;;;;;;;;;;5050540;28;20483;-66
2021/01/02 04:53:37;;;;;;;45.05;21.33;;;;;;;;;;5050487;28;20029;-66
2021/01/02 04:56:05;;;;;;;47.85;21.75;;;8.10;61.40;;;;;;5050988;28;20033;-67
2021/01/02 04:58:44;;;;;;;49.53;21.55;;;8.10;61.60;;;;;;5050469;28;20040;-66
2021/01/02 05:01:12;;;;;;;46.83;21.92;;;8.20;61.30;;;;;;5051309;28;20036;-66
2021/01/02 05:03:46;;;;;;;49.85;21.88;;;8.10;61.50;;;;;;5050988;28;20044;-65
2021/01/02 05:06:12;;;;;;;46.28;20.58;;;;;;;;;;5050124;28;20028;-65
2021/01/02 05:08:40;;;;;;;46.67;21.40;;;8.00;61.90;;;;;;5050465;28;20033;-65
2021/01/02 05:11:08;;;;;;;49.45;21.42;;;8.00;62.10;;;;;;5050272;28;20028;-66
2021/01/02 05:13:36;;;;;;;56.78;24.35;;;7.80;62.60;;;;;;5049203;28;20035;-66
2021/01/02 05:16:34;;;;;;;54.33;24.05;;;8.00;62.20;;;;;;5049509;28;20021;-66
2021/01/02 05:19:03;;;;;;;58.28;22.40;;;8.10;61.80;;;;;;5050161;28;20395;-67
2021/01/02 05:21:30;;;;;;;52.75;23.40;;;8.10;61.80;;;;;;5050498;28;20459;-67
2021/01/02 05:24:14;;;;;;;;;;;8.10;62.30;;;;;;5050617;28;20432;-65
2021/01/02 05:27:00;;;;;;;50.67;22.13;;;8.30;61.00;;;;;;5053627;28;19970;-66
2021/01/02 05:29:29;;;;;;;54.27;22.27;;;8.30;61.10;;;;;;5053906;28;20033;-66
2021/01/02 05:31:58;;;;;;;52.75;22.30;;;8.10;61.40;;;;;;5054060;28;20029;-65
2021/01/02 05:34:26;;;;;;;54.65;25.58;;;8.10;61.90;;;;;;5053720;28;20025;-65
2021/01/02 05:36:59;;;;;;;56.22;26.02;;;8.20;61.40;;;;;;5053688;28;20021;-65
2021/01/02 05:39:37;;;;;;;51.40;24.80;;;8.20;61.40;;;;;;5053735;28;20057;-66
2021/01/02 05:42:04;;;;;;;55.78;25.65;;;;;;;;;;5054027;28;20033;-66
2021/01/02 05:44:35;;;;;;;49.90;23.05;;;8.20;61.40;;;;;;5053642;28;20041;-66
2021/01/02 05:47:01;;;;;;;58.03;24.13;;;;;;;;;;5054066;28;20027;-67
2021/01/02 05:49:41;;;;;;;54.28;24.13;;;8.10;61.50;;;;;;5053407;28;20377;-65
2021/01/02 05:52:11;;;;;;;56.88;24.73;;;8.20;61.60;;;;;;5053406;28;20092;-67
2021/01/02 05:54:47;;;;;;;51.60;23.10;;;8.90;61.60;;;;;;5053426;28;20218;-65
2021/01/02 05:57:23;;;;;;;49.42;23.20;;;8.10;61.70;;;;;;5053558;28;20032;-65
2021/01/02 05:59:54;;;;;;;49.38;24.85;;;8.30;61.30;;;;;;5053382;28;20025;-67
2021/01/02 06:02:22;;;;;;;55.00;25.65;;;8.40;61.20;;;;;;5053454;28;20037;-66
2021/01/02 06:05:01;;;;;;;51.60;24.65;;;8.40;61.00;;;;;;5053046;28;20499;-66
2021/01/02 06:07:35;;;;;;;55.65;24.13;;;8.30;60.90;;;;;;5052978;28;20025;-65
2021/01/02 06:10:01;;;;;;;55.25;25.38;;;;;;;;;;5053221;28;20041;-66
2021/01/02 06:12:27;;;;;;;61.17;28.38;;;;;;;;;;5052903;28;20029;-65
2021/01/02 06:14:54;;;;;;;58.97;26.60;;;8.50;60.80;;;;;;5053194;28;20115;-64
2021/01/02 06:17:26;;;;;;;67.35;26.45;;;8.60;60.30;;;;;;5051753;28;20848;-64
2021/01/02 06:19:53;;;;;;;57.92;25.98;;;;;;;;;;5053179;28;20079;-64
2021/01/02 06:22:19;;;;;;;61.03;26.02;;;;;;;;;;5052852;28;20033;-66
2021/01/02 06:24:49;;;;;;;55.20;25.00;;;8.70;60.20;;;;;;5052866;28;20040;-64
2021/01/02 06:27:16;;;;;;;52.03;25.83;;;8.70;60.20;;;;;;5052383;28;20071;-63
2021/01/02 06:29:54;;;;;;;59.53;25.75;;;8.60;60.00;;;;;;5053357;28;20040;-65
2021/01/02 06:32:21;;;;;;;61.25;24.80;;;8.60;60.40;;;;;;5052442;28;20033;-64
2021/01/02 06:35:06;;;;;;;54.60;25.25;;;8.40;60.80;;;;;;5052769;28;20025;-66
2021/01/02 06:37:47;;;;;;;59.67;26.48;;;8.30;61.10;;;;;;5052147;28;20136;-65
2021/01/02 06:40:20;;;;;;;53.95;23.10;;;8.20;61.10;;;;;;5052637;28;20049;-65
2021/01/02 06:42:57;;;;;;;59.72;24.52;;;8.10;61.70;;;;;;5052150;28;20450;-64
2021/01/02 06:45:35;;;;;;;63.70;26.45;;;8.10;62.00;;;;;;5052506;28;20044;-66
2021/01/02 06:48:24;;;;;;;60.25;26.35;;;8.10;61.60;;;;;;5052391;28;20037;-65
2021/01/02 06:50:53;;;;;;;58.55;25.67;;;7.90;62.10;;;;;;5043033;28;20040;-65
2021/01/02 06:53:19;;;;;;;59.20;26.30;;;;;;;;;;5050663;28;20033;-64
2021/01/02 06:55:45;;;;;;;57.50;25.67;;;;;;;;;;5052407;28;20057;-65
2021/01/02 06:58:18;;;;;;;59.30;26.48;;;8.30;61.10;;;;;;5052275;28;20033;-66
2021/01/02 07:00:44;;;;;;;59.78;26.08;;;;;;;;;;5038732;28;20072;-65
2021/01/02 07:03:41;;;;;;;53.60;25.20;;;8.40;60.40;;;;;;5052150;28;20037;-64
2021/01/02 07:06:30;;;;;;;57.45;25.45;;;8.30;60.60;;;;;;5040735;28;20392;-65
2021/01/02 07:09:15;;;;;;;60.67;26.30;;;8.40;60.50;;;;;;5050374;28;20052;-67
2021/01/02 07:11:45;;;;;;;60.53;26.63;;;8.60;60.00;;;;;;5050676;28;20067;-65
2021/01/02 07:14:12;;;;;;;64.00;26.60;;;;;;;;;;5051644;28;20033;-65
2021/01/02 07:16:52;;;;;;;59.85;25.35;;;8.30;60.40;;;;;;5052102;28;20090;-65
2021/01/02 07:19:27;;;;;;;58.05;25.38;;;8.40;60.70;;;;;;5051689;28;20029;-66
2021/01/02 07:22:17;;;;;;;55.33;25.97;;;8.40;60.30;;;;;;5051936;28;20059;-65
2021/01/02 07:24:55;;;;;;;60.17;24.90;;;8.50;60.10;;;;;;5039149;28;20295;-65
2021/01/02 07:27:28;;;;;;;60.60;26.45;;;8.40;60.10;;;;;;5050246;28;20088;-63
2021/01/02 07:29:59;;;;;;;54.05;24.48;;;8.50;60.10;;;;;;5051939;28;20024;-65
2021/01/02 07:32:28;;;;;;;55.83;23.75;;;8.30;59.90;;;;;;5051711;28;20036;-65
2021/01/02 07:35:12;;;;;;;65.32;27.17;;;8.20;60.10;;;;;;5051503;28;20036;-66
2021/01/02 07:37:43;;;;;;;61.65;25.45;;;8.50;60.00;;;;;;5051160;28;20056;-66
2021/01/02 07:40:14;;;;;;;59.20;24.45;;;8.50;59.90;;;;;;5051373;28;20037;-66
2021/01/02 07:42:51;;;;;;;54.05;22.88;;;8.60;59.60;;;;;;5051261;28;20040;-66
2021/01/02 07:45:19;;;;;;;;;;;8.60;60.00;;;;;;5051569;28;20033;-64
2021/01/02 07:47:50;;;;;;;55.15;24.02;;;8.60;59.20;;;;;;5050636;28;19909;-66
2021/01/02 07:50:19;;;;;;;52.95;23.75;;;8.50;59.80;;;;;;5051426;28;20424;-64
2021/01/02 07:53:04;;;;;;;49.85;22.88;;;8.60;59.80;;;;;;5051035;28;20040;-66
2021/01/02 07:55:32;;;;;;;55.08;23.95;;;8.60;59.70;;;;;;5050746;28;20071;-66
2021/01/02 07:57:59;;;;;;;55.15;23.40;;;;;;;;;;5051158;28;20090;-66
2021/01/02 08:00:25;;;;;;;55.03;23.38;;;;;;;;;;5044703;28;20025;-65
2021/01/02 08:02:52;;;;;;;50.15;21.23;;;;;;;;;;5047384;28;20052;-67
2021/01/02 08:05:20;;;;;;;53.50;22.27;;;8.40;60.20;;;;;;5050515;28;20033;-65
2021/01/02 08:08:00;;;;;;;56.53;23.13;;;8.20;60.50;;;;;;5050151;28;20439;-65
2021/01/02 08:10:28;;;;;;;57.88;22.88;;;8.10;61.00;;;;;;5060530;28;20038;-65
2021/01/02 08:12:57;;;;;;;57.33;23.75;;;8.20;60.90;;;;;;5050491;28;20058;-65
2021/01/02 08:15:34;;;;;;;57.92;23.33;;;8.00;61.50;;;;;;5050002;28;20021;-66
2021/01/02 08:18:05;;;;;;;52.55;23.58;;;7.80;62.00;;;;;;5050310;28;20515;-65
2021/01/02 08:20:31;;;;;;;56.22;22.85;;;;;;;;;;5046151;28;20050;-65
2021/01/02 08:22:58;;;;;;;52.70;23.80;;;;;;;;;;5050181;28;20028;-65
2021/01/02 08:25:24;;;;;;;55.45;23.35;;;;;;;;;;5050637;28;19959;-65
2021/01/02 08:27:51;;;;;;;58.67;25.00;;;;;;;;;;5049763;28;20115;-66
2021/01/02 08:30:17;;;;;;;58.95;25.40;;;;;;;;;;5047941;28;20037;-65
2021/01/02 08:32:51;;;;;;;66.75;26.65;;;8.30;61.10;;;;;;5048529;28;20020;-66
2021/01/02 08:35:18;;;;;;;62.00;25.80;;;8.20;61.10;;;;;;5048421;28;20060;-65
2021/01/02 08:37:46;;;;;;;58.55;24.45;;;8.30;61.00;;;;;;5049097;28;20100;-67
2021/01/02 08:40:15;;;;;;;66.85;25.33;;;8.40;60.90;;;;;;5049812;28;20064;-65
2021/01/02 08:42:43;;;;;;;60.28;25.30;;;8.30;61.00;;;;;;5049816;28;20059;-64
2021/01/02 08:45:11;;;;;;;68.72;25.67;;;8.60;60.70;;;;;;5048307;28;20133;-63
2021/01/02 08:47:38;;;;;;;54.70;23.38;;;8.70;60.40;;;;;;5049828;28;20021;-65
2021/01/02 08:50:12;;;;;;;62.72;24.35;;;8.60;59.90;;;;;;5048145;28;20062;-65
2021/01/02 08:52:39;;;;;;;63.67;22.73;;;;;;;;;;5048361;28;20036;-65
2021/01/02 08:55:15;;;;;;;70.72;25.00;;;8.60;60.50;;;;;;5049764;28;20098;-66
2021/01/02 08:57:49;;;;;;;59.20;25.23;;;8.50;60.60;;;;;;5049591;28;20033;-65
2021/01/02 09:00:31;;;;;;;69.35;26.23;;;8.60;60.60;;;;;;5051157;28;20029;-65
2021/01/02 09:03:03;;;;;;;70.57;25.63;;;8.50;60.60;;;;;;5051167;28;20477;-65
2021/01/02 09:05:30;;;;;;;70.28;26.85;;;8.50;61.00;;;;;;5052846;28;20052;-64
2021/01/02 09:08:16;;;;;;;65.70;24.92;;;8.50;60.80;;;;;;5053566;28;20083;-66
2021/01/02 09:10:44;;;;;;;72.83;25.03;;;8.30;61.30;;;;;;5053163;28;20067;-64
2021/01/02 09:13:10;;;;;;;75.03;26.73;;;;;;;;;;5049786;28;20029;-65
2021/01/02 09:15:58;;;;;;;65.40;25.58;;;8.30;61.70;;;;;;5051881;28;20063;-65
2021/01/02 09:18:24;;;;;;;65.25;25.42;;;;;;;;;;5053442;28;20036;-65
2021/01/02 09:20:50;;;;;;;83.57;27.75;;;;;;;;;;5052791;28;20394;-66
2021/01/02 09:23:32;;;;;;;81.88;29.40;;;8.60;61.40;;;;;;5052032;28;20033;-64
2021/01/02 09:25:58;;;;;;;72.20;27.50;;;;;;;;;;5052757;28;20544;-64
2021/01/02 09:28:25;;;;;;;83.30;27.45;;;;;;;;;;5054015;28;20044;-65
2021/01/02 09:30:52;;;;;;;83.72;27.00;;;8.60;60.70;;;;;;5053090;28;20391;-64
2021/01/02 09:33:18;;;;;;;80.63;26.60;;;;;;;;;;5052248;28;20043;-65
2021/01/02 09:35:46;;;;;;;80.03;27.48;;;8.50;61.50;;;;;;5052131;28;20087;-65
2021/01/02 09:38:14;;;;;;;78.45;24.42;;;;;;;;;;5053210;28;20487;-66
2021/01/02 09:40:43;;;;;;;83.80;28.83;;;8.60;61.50;;;;;;5052993;28;20063;-65
2021/01/02 09:43:13;;;;;;;93.93;29.67;;;8.50;61.90;;;;;;5052492;28;20036;-65
2021/01/02 09:45:40;;;;;;;77.95;26.70;;;8.60;61.50;;;;;;5052662;28;20040;-65
2021/01/02 09:48:06;;;;;;;;;;;8.60;62.00;;;;;;5053380;28;20021;-65
2021/01/02 09:50:36;;;;;;;81.65;27.90;;;;;;;;;;5053037;28;19980;-64
2021/01/02 09:53:03;;;;;;;85.50;29.83;;;8.60;62.10;;;;;;5053220;28;20029;-65
2021/01/02 09:55:30;;;;;;;87.63;27.83;;;;;;;;;;5053653;28;20060;-66
2021/01/02 09:57:56;;;;;;;75.43;29.17;;;;;;;;;;5054135;28;20502;-66
2021/01/02 10:00:23;;;;;;;91.30;29.10;;;;;;;;;;5052683;28;20032;-63
2021/01/02 10:02:50;;;;;;;75.28;26.55;;;;;;;;;;5051626;28;20055;-65
2021/01/02 10:05:18;;;;;;;90.90;30.75;;;8.90;61.30;;;;;;5052147;28;20059;-66
2021/01/02 10:07:45;;;;;;;76.75;27.83;;;;;;;;;;5052204;28;20025;-64
2021/01/02 10:10:12;;;;;;;87.13;28.88;;;9.00;61.20;;;;;;5051988;28;20399;-64
2021/01/02 10:12:39;;;;;;;74.55;28.50;;;8.90;61.10;;;;;;5051699;28;20024;-65
2021/01/02 10:15:06;;;;;;;76.82;27.52;;;9.00;61.20;;;;;;5052542;28;20033;-65
2021/01/02 10:17:32;;;;;;;81.68;29.52;;;;;;;;;;5052800;28;20017;-65
2021/01/02 10:19:59;;;;;;;79.40;29.15;;;;;;;;;;5052732;28;20490;-65
2021/01/02 10:22:25;;;;;;;;;;;8.90;61.50;;;;;;5051761;28;20067;-64
2021/01/02 10:24:52;;;;;;;84.40;29.23;;;;;;;;;;5052265;28;19939;-64
2021/01/02 10:27:20;;;;;;;91.32;29.38;;;9.00;61.20;;;;;;5050717;28;20060;-65
2021/01/02 10:29:47;;;;;;;91.72;30.17;;;8.90;61.40;;;;;;5052128;28;20029;-64
2021/01/02 10:32:15;;;;;;;86.00;29.05;;;8.90;61.30;;;;;;5051148;28;20029;-63
2021/01/02 10:34:42;;;;;;;83.15;28.70;;;8.90;61.60;;;;;;5051968;28;20055;-64
2021/01/02 10:37:08;;;;;;;94.88;26.42;;;;;;;;;;5052052;28;20503;-65
2021/01/02 10:39:39;;;;;;;84.20;28.45;;;8.80;62.20;;;;;;5052134;28;20051;-64
2021/01/02 10:42:05;;;;;;;82.85;26.77;;;;;;;;;;5052190;28;20037;-64
2021/01/02 10:44:31;;;;;;;84.80;25.83;;;;;;;;;;5051691;28;20087;-64
2021/01/02 10:46:59;;;;;;;80.07;27.25;;;;;;;;;;5052008;28;20037;-65
2021/01/02 10:49:26;;;;;;;95.03;29.40;;;8.80;62.80;;;;;;5050543;28;20393;-63
2021/01/02 10:51:52;;;;;;;84.55;28.15;;;;;;;;;;5052030;28;20033;-64
2021/01/02 10:54:19;;;;;;;84.53;28.00;;;;;;;;;;5051825;28;20439;-65
2021/01/02 10:56:50;;;;;;;87.28;28.17;;;8.70;63.10;;;;;;5051484;28;20032;-64
2021/01/02 10:59:17;;;;;;;96.38;30.10;;;8.80;63.10;;;;;;5051781;28;20052;-65
2021/01/02 11:01:52;;;;;;;90.00;27.55;;;8.80;63.10;;;;;;5051122;28;20383;-65
2021/01/02 11:04:20;;;;;;;91.28;27.73;;;9.00;63.00;;;;;;5051652;28;20040;-64
2021/01/02 11:06:50;;;;;;;90.35;28.80;;;9.20;62.60;;;;;;5052332;28;20033;-63
2021/01/02 11:09:17;;;;;;;96.97;29.58;;;9.30;62.30;;;;;;5041023;28;20053;-65
2021/01/02 11:11:45;;;;;;;95.60;30.73;;;;;;;;;;5050433;28;20040;-65
2021/01/02 11:14:11;;;;;;;92.45;29.23;;;;;;;;;;5051467;28;20021;-65
2021/01/02 11:16:42;;;;;;;96.97;30.90;;;9.50;61.60;;;;;;5051478;28;20521;-63
2021/01/02 11:19:17;;;;;;;84.65;28.20;;;9.60;61.50;;;;;;5051058;28;20021;-65
2021/01/02 11:22:03;;;;;;;91.24;29.84;;;9.70;61.30;;;;;;5005844;28;10000760;-64
2021/01/02 11:24:32;;;;;;;85.10;27.42;;;9.70;61.20;;;;;;5048382;28;20261;-64
2021/01/02 11:27:00;;;;;;;88.78;28.98;;;9.70;60.80;;;;;;5048869;28;20045;-64
2021/01/02 11:29:29;;;;;;;91.15;28.23;;;9.70;61.10;;;;;;5049359;28;20025;-64
2021/01/02 11:31:56;;;;;;;85.35;28.20;;;;;;;;;;5045050;28;20032;-67
2021/01/02 11:34:23;;;;;;;67.72;25.67;;;9.60;60.60;;;;;;5048306;28;20548;-65
2021/01/02 11:36:51;;;;;;;86.78;27.52;;;9.50;60.80;;;;;;5048780;28;20095;-65
2021/01/02 11:39:18;;;;;;;81.65;27.48;;;;;;;;;;5048901;28;20040;-66
2021/01/02 11:41:45;;;;;;;77.00;26.25;;;9.50;60.50;;;;;;5049007;28;20040;-64
2021/01/02 11:44:13;;;;;;;80.60;27.17;;;9.60;60.60;;;;;;5048623;28;20885;-65
2021/01/02 11:46:42;;;;;;;83.72;28.98;;;9.70;60.20;;;;;;5048639;28;20078;-65
2021/01/02 11:49:11;;;;;;;97.55;32.33;;;9.70;60.20;;;;;;5048716;28;20029;-66
2021/01/02 11:51:37;;;;;;;91.88;30.90;;;;;;;;;;5046975;28;20029;-64
2021/01/02 11:54:04;;;;;;;94.85;29.48;;;9.70;60.10;;;;;;5048611;28;20041;-66
2021/01/02 11:56:30;;;;;;;;;;;9.70;60.60;;;;;;5049286;28;20067;-65
2021/01/02 11:59:00;;;;;;;103.07;30.88;;;9.80;59.90;;;;;;5048032;28;20372;-67
2021/01/02 12:01:36;;;;;;;82.88;28.05;;;9.90;59.90;;;;;;5048333;28;20102;-65
2021/01/02 12:04:02;;;;;;;83.88;29.75;;;;;;;;;;5048171;28;20064;-67
2021/01/02 12:06:31;;;;;;;88.05;30.10;;;9.70;60.10;;;;;;5048076;28;20387;-65
2021/01/02 12:08:57;;;;;;;82.13;28.42;;;;;;;;;;5048392;28;20096;-63
2021/01/02 12:11:35;;;;;;;89.15;30.02;;;9.90;60.20;;;;;;5048124;28;20028;-64
2021/01/02 12:14:01;;;;;;;113.57;34.28;;;;;;;;;;5048214;28;20045;-65
2021/01/02 12:16:47;;;;;;;90.93;31.15;;;9.90;59.60;;;;;;5048443;28;20047;-65
2021/01/02 12:19:17;;;;;;;85.53;30.58;;;9.90;59.80;;;;;;5048339;28;20451;-63
2021/01/02 12:21:43;;;;;;;97.43;31.88;;;;;;;;;;5046447;28;20054;-64
2021/01/02 12:24:10;;;;;;;89.15;29.63;;;10.00;59.70;;;;;;5049388;28;20357;-64
2021/01/02 12:26:46;;;;;;;91.15;29.25;;;9.80;59.80;;;;;;5048153;28;20053;-63
2021/01/02 12:29:14;;;;;;;73.65;27.08;;;9.70;60.40;;;;;;5038918;28;20045;-63
2021/01/02 12:31:42;;;;;;;80.82;28.60;;;9.50;61.00;;;;;;5050437;28;20037;-64
2021/01/02 12:34:09;;;;;;;85.18;28.17;;;;;;;;;;5051034;28;20029;-64
2021/01/02 12:36:42;;;;;;;78.00;28.13;;;9.40;61.60;;;;;;5054115;28;20017;-64
2021/01/02 12:39:10;;;;;;;84.55;27.77;;;9.50;61.30;;;;;;5053805;28;20033;-65
2021/01/02 12:41:36;;;;;;;86.05;30.92;;;;;;;;;;5054064;28;20029;-65
2021/01/02 12:44:03;;;;;;;84.03;30.25;;;9.60;61.10;;;;;;5053791;28;20036;-65
2021/01/02 12:46:44;;;;;;;85.40;29.88;;;9.80;60.80;;;;;;5054199;28;20021;-64
2021/01/02 12:49:12;;;;;;;72.75;27.77;;;9.80;60.30;;;;;;5052550;28;20094;-65
2021/01/02 12:51:38;;;;;;;81.45;28.67;;;;;;;;;;5053577;28;20052;-66
2021/01/02 12:54:05;;;;;;;83.18;26.73;;;;;;;;;;5053952;28;20059;-65
2021/01/02 12:56:31;;;;;;;86.43;29.42;;;;;;;;;;5053820;28;20037;-65
2021/01/02 12:58:57;;;;;;;78.05;28.13;;;;;;;;;;5053656;28;20043;-65
2021/01/02 13:01:24;;;;;;;83.28;28.02;;;;;;;;;;5052067;28;20033;-65
2021/01/02 13:03:50;;;;;;;72.47;27.17;;;;;;;;;;5053492;28;20029;-65
2021/01/02 13:06:17;;;;;;;79.97;27.80;;;10.00;60.10;;;;;;5053460;28;20059;-65
2021/01/02 13:08:44;;;;;;;81.90;28.70;;;10.00;60.40;;;;;;5053431;28;20037;-64
2021/01/02 13:11:11;;;;;;;80.05;28.20;;;10.10;60.30;;;;;;5052261;28;20090;-65
2021/01/02 13:13:38;;;;;;;85.22;28.73;;;;;;;;;;5053283;28;20061;-63
2021/01/02 13:16:09;;;;;;;77.00;28.90;;;10.10;60.40;;;;;;5053995;28;20036;-64
2021/01/02 13:18:36;;;;;;;71.25;24.92;;;;;;;;;;5053399;28;20463;-64
2021/01/02 13:21:04;;;;;;;64.78;25.35;;;10.00;60.30;;;;;;5053136;28;20079;-64
2021/01/02 13:23:31;;;;;;;62.58;24.83;;;;;;;;;;5052003;28;20458;-65
2021/01/02 13:25:57;;;;;;;73.28;27.95;;;;;;;;;;5052947;28;20037;-64
2021/01/02 13:28:23;;;;;;;68.38;24.90;;;;;;;;;;5053523;28;20387;-65